Airport View

Enter AWOS ICAO identifier for current METAR.

ex. KFNL

KGHG 011315Z AUTO 20007KT 10SM CLR 20/14 A2987 RMK AO2

1 Oct 2020 13:49

Frequency: 120.0

Phone: 781-837-0555

Other Area AWOS: KPYM - KPVC - KTAN - KMQE

TAF KBOS 011122Z 0112/0218 20007KT P6SM FEW120 FM011500 21012G19KT P6SM SCT120 FM020000 21006KT P6SM FEW120 FM020500 24004KT P6SM FEW100 FM021000 35003KT P6SM SCT080 FM021300 02004KT P6SM SCT045 FM021500 04004KT P6SM VCSH SCT040